Time;durP1;ratioP1;P1;durP2;ratioP2;P2;SDS_P1;SDS_P2;PMS_P1;PMS_P2;Temp;Humidity;BMP_temperature;BMP_pressure;BME280_temperature;BME280_humidity;BME280_pressure;Samples;Min_cycle;Max_cycle;Signal;HPM_P1;HPM_P2
2023/01/01 00:00:06;;;;;;;;;3.50;3.50;;;;;13.34;85.29;100538.75;4903277;29;45279;-91
2023/01/01 00:02:32;;;;;;;;;1.00;0.00;;;;;11.97;85.29;100309.63;4904292;29;47285;-90
2023/01/01 00:04:58;;;;;;;;;3.50;3.50;;;;;12.15;78.95;100339.97;4912276;29;45460;-91
2023/01/01 00:07:23;;;;;;;;;2.50;2.50;;;;;13.01;79.20;100484.91;4907920;29;45668;-92
2023/01/01 00:12:33;;;;;;;;;1.75;1.75;;;;;12.82;84.35;100456.31;4922370;28;45757;-92
2023/01/01 00:14:58;;;;;;;;;4.00;4.00;;;;;12.38;84.25;100390.47;4921973;28;45197;-91
2023/01/01 00:17:25;;;;;;;;;5.75;5.00;;;;;13.21;83.53;100530.28;4907407;28;45498;-90
2023/01/01 00:19:50;;;;;;;;;5.25;5.25;;;;;12.62;80.91;100444.53;4911248;28;45356;-91
2023/01/01 00:22:17;;;;;;;;;5.00;5.00;;;;;13.08;84.71;100502.38;4889851;29;47276;-90
2023/01/01 00:24:43;;;;;;;;;5.25;4.75;;;;;11.06;84.03;100178.09;4902564;29;45463;-90
2023/01/01 00:27:08;;;;;;;;;6.25;5.00;;;;;12.71;84.25;100466.41;4901178;29;45422;-91
2023/01/01 00:29:34;;;;;;;;;4.75;4.00;;;;;12.91;87.62;100476.38;4907457;29;45280;-89
2023/01/01 00:31:59;;;;;;;;;5.75;4.00;;;;;12.71;85.15;100450.50;4905896;29;45370;-91
2023/01/01 00:34:24;;;;;;;;;4.00;4.00;;;;;12.82;84.02;100484.63;4894725;29;45263;-90
2023/01/01 00:36:50;;;;;;;;;5.50;5.00;;;;;13.35;85.91;100558.22;4910075;29;45631;-90
2023/01/01 00:39:15;;;;;;;;;8.00;5.00;;;;;12.45;85.16;100396.47;4912011;29;44832;-90
2023/01/01 00:41:40;;;;;;;;;5.00;3.50;;;;;13.31;86.85;100550.28;4904997;29;47162;-90
2023/01/01 00:44:06;;;;;;;;;3.50;2.25;;;;;12.07;83.76;100326.94;4887371;29;45686;-90
2023/01/01 00:46:31;;;;;;;;;4.75;3.00;;;;;13.03;82.06;100504.31;4884351;29;45493;-91
2023/01/01 00:48:57;;;;;;;;;3.00;3.00;;;;;13.32;84.93;100548.50;4900911;29;45574;-90
2023/01/01 00:51:22;;;;;;;;;6.50;4.75;;;;;13.33;83.38;100556.47;4902056;29;47058;-90
2023/01/01 00:53:47;;;;;;;;;4.00;4.00;;;;;12.79;85.93;100464.38;4891467;29;45180;-90
2023/01/01 00:56:13;;;;;;;;;4.50;3.75;;;;;12.49;88.27;100429.91;4912554;29;45369;-89
2023/01/01 00:58:38;;;;;;;;;7.00;6.00;;;;;13.28;82.51;100544.22;4893848;29;45201;-89
2023/01/01 01:01:03;;;;;;;;;8.00;8.00;;;;;12.47;87.44;100405.25;4908934;29;45433;-88
2023/01/01 01:03:29;;;;;;;;;5.50;5.50;;;;;13.04;86.41;100501.63;4893835;29;45400;-89
2023/01/01 01:06:01;;;;;;;;;7.25;6.50;;;;;12.35;86.97;100368.53;4906250;29;45318;-89
2023/01/01 01:08:28;;;;;;;;;4.75;4.75;;;;;12.46;88.14;100389.38;4887105;29;45358;-89
2023/01/01 01:10:54;;;;;;;;;5.00;5.00;;;;;12.56;89.33;100410.25;4905755;29;47740;-91
2023/01/01 01:13:20;;;;;;;;;4.75;4.75;;;;;12.36;86.80;100387.03;4906715;29;45970;-90
2023/01/01 01:15:46;;;;;;;;;6.00;6.00;;;;;12.75;85.23;100454.75;4902120;29;45531;-91
2023/01/01 01:18:12;;;;;;;;;5.50;5.50;;;;;13.31;86.36;100560.91;4905156;29;45246;-90
2023/01/01 01:20:37;;;;;;;;;6.00;5.25;;;;;13.13;87.75;100526.97;4913693;28;47377;-90
2023/01/01 01:23:03;;;;;;;;;5.75;4.75;;;;;12.92;87.93;100476.34;4911072;28;45441;-91
2023/01/01 01:25:29;;;;;;;;;5.25;5.25;;;;;13.33;88.00;100564.41;4904319;28;45378;-90
2023/01/01 01:27:54;;;;;;;;;7.00;7.00;;;;;12.58;87.20;100445.53;4902726;29;45253;-91
2023/01/01 01:30:19;;;;;;;;;4.50;3.00;;;;;13.32;88.32;100553.81;4882311;29;45415;-91
2023/01/01 01:32:45;;;;;;;;;5.50;5.25;;;;;12.83;88.88;100484.59;4903553;29;45368;-91
2023/01/01 01:35:10;;;;;;;;;8.75;7.00;;;;;13.04;89.20;100522.84;4904495;29;45436;-90
2023/01/01 01:37:36;;;;;;;;;8.00;6.75;;;;;12.76;86.37;100477.72;4903307;29;45712;-90
2023/01/01 01:40:01;;;;;;;;;8.25;7.75;;;;;12.44;85.37;100413.28;4907663;29;45576;-90
2023/01/01 01:42:26;;;;;;;;;6.00;6.00;;;;;12.23;87.13;100397.09;4907206;29;45383;-90
2023/01/01 01:44:55;;;;;;;;;5.75;4.50;;;;;12.96;87.33;100525.72;4880575;29;45317;-91
2023/01/01 01:47:32;;;;;;;;;7.00;6.00;;;;;13.28;88.41;100584.88;4866321;29;45518;-91
2023/01/01 01:50:07;;;;;;;;;6.00;5.50;;;;;12.57;88.23;100475.63;4864759;29;47411;-91
2023/01/01 01:52:36;;;;;;;;;8.00;6.75;;;;;13.31;90.27;100566.22;4866634;29;45462;-89
2023/01/01 01:55:05;;;;;;;;;6.00;3.50;;;;;12.31;88.82;100426.03;4890112;29;45294;-90
2023/01/01 01:57:31;;;;;;;;;7.00;5.50;;;;;13.28;89.25;100619.38;4888275;29;45446;-91
2023/01/01 01:59:58;;;;;;;;;10.00;6.00;;;;;12.89;88.22;100540.09;4896404;29;45622;-90
2023/01/01 02:02:38;;;;;;;;;7.00;6.25;;;;;12.95;85.01;100533.72;4910803;29;45307;-90
2023/01/01 02:05:05;;;;;;;;;6.50;5.50;;;;;12.50;88.34;100474.06;4889853;29;45390;-90
2023/01/01 02:07:34;;;;;;;;;6.00;5.50;;;;;12.59;89.75;100495.00;4908404;29;45531;-90
2023/01/01 02:10:01;;;;;;;;;7.75;6.50;;;;;13.30;90.35;100614.03;4891441;29;46516;-90
2023/01/01 02:12:27;;;;;;;;;6.25;6.25;;;;;12.43;90.90;100448.66;4903073;29;45378;-91
2023/01/01 02:14:52;;;;;;;;;6.75;5.50;;;;;13.31;91.44;100600.72;4888104;29;45254;-90
2023/01/01 02:17:34;;;;;;;;;8.00;8.00;;;;;12.33;90.87;100445.41;4907930;29;45300;-90
2023/01/01 02:19:59;;;;;;;;;5.00;5.00;;;;;13.31;92.39;100624.59;4905764;29;47412;-91
2023/01/01 02:22:43;;;;;;;;;5.00;5.00;;;;;13.29;86.71;100621.13;4903180;29;45396;-90
2023/01/01 02:25:50;;;;;;;;;4.75;4.75;;;;;13.28;90.01;100611.41;4906940;29;45422;-90
2023/01/01 02:28:47;;;;;;;;;6.75;5.75;;;;;13.21;87.45;100603.69;4907310;29;45267;-91
2023/01/01 02:31:17;;;;;;;;;5.75;4.75;;;;;12.43;90.19;100480.47;4869558;29;46278;-91
2023/01/01 02:33:45;;;;;;;;;10.00;6.25;;;;;13.02;89.46;100584.81;4871770;29;44769;-89
2023/01/01 02:36:12;;;;;;;;;6.25;6.00;;;;;11.99;91.36;100424.31;4869837;29;45454;-91
2023/01/01 02:38:45;;;;;;;;;7.75;7.00;;;;;12.09;91.71;100437.25;4850898;29;45570;-90
2023/01/01 02:41:18;;;;;;;;;6.75;5.75;;;;;13.20;89.22;100616.09;4848680;29;47203;-91
2023/01/01 02:43:45;;;;;;;;;9.25;6.50;;;;;13.09;89.23;100615.56;4864401;29;45431;-89
2023/01/01 02:46:11;;;;;;;;;7.50;6.25;;;;;12.75;91.85;100568.78;4860459;29;45438;-90
2023/01/01 02:48:39;;;;;;;;;6.50;6.00;;;;;12.52;86.83;100519.09;4847341;29;45566;-89
2023/01/01 02:51:48;;;;;;;;;5.75;5.75;;;;;12.52;90.66;100530.56;4853471;29;47164;-89
2023/01/01 02:54:16;;;;;;;;;6.50;6.00;;;;;13.17;92.34;100639.22;4864108;29;45374;-89
2023/01/01 02:57:01;;;;;;;;;5.75;5.75;;;;;13.15;90.54;100644.59;4874258;29;45311;-90
2023/01/01 03:03:08;;;;;;;;;5.25;4.00;;;;;13.10;86.63;100643.81;4876603;29;45481;-90
2023/01/01 03:06:34;;;;;;;;;9.50;6.00;;;;;12.32;89.10;100509.06;4851392;29;45436;-88
2023/01/01 03:08:56;;;;;;;;;4.50;4.50;;;;;13.09;91.09;100636.81;4867133;29;45444;-91
2023/01/01 03:11:27;;;;;;;;;5.00;4.25;;;;;13.09;90.68;100631.50;4868495;29;45518;-90
2023/01/01 03:14:11;;;;;;;;;7.00;4.75;;;;;12.53;88.41;100545.56;4882649;29;46279;-91
2023/01/01 03:16:43;;;;;;;;;6.00;5.00;;;;;12.65;89.71;100564.66;4865894;29;45395;-90
2023/01/01 03:19:15;;;;;;;;;6.50;5.50;;;;;13.10;91.47;100622.59;4871886;29;44801;-90
2023/01/01 03:21:47;;;;;;;;;5.00;3.00;;;;;12.21;91.90;100504.94;4870274;29;45428;-91
2023/01/01 03:24:23;;;;;;;;;4.00;4.00;;;;;12.38;91.66;100560.09;4870229;29;45724;-91
2023/01/01 03:26:54;;;;;;;;;7.00;5.75;;;;;13.10;91.50;100644.72;4867115;29;46014;-91
2023/01/01 03:29:23;;;;;;;;;4.25;4.25;;;;;12.75;92.94;100595.31;4875156;29;45466;-90
2023/01/01 03:31:52;;;;;;;;;7.75;6.25;;;;;12.56;91.28;100565.81;4876690;29;45383;-89
2023/01/01 03:34:22;;;;;;;;;6.25;6.25;;;;;12.91;88.41;100633.75;4870966;29;46665;-90
2023/01/01 03:36:54;;;;;;;;;6.00;5.50;;;;;13.07;92.45;100681.97;4868734;29;45427;-90
2023/01/01 03:39:25;;;;;;;;;6.25;4.25;;;;;12.43;91.45;100567.94;4868232;29;45445;-91
2023/01/01 03:42:19;;;;;;;;;4.50;4.00;;;;;13.06;90.37;100671.38;4883442;29;45464;-91
2023/01/01 03:45:23;;;;;;;;;7.50;5.25;;;;;13.06;87.94;100679.34;4869316;29;46012;-90
2023/01/01 03:47:49;;;;;;;;;8.50;8.00;;;;;12.81;90.13;100640.22;4870759;29;45191;-91
2023/01/01 03:50:16;;;;;;;;;10.50;6.00;;;;;11.88;92.01;100489.00;4888367;29;45364;-90
2023/01/01 03:53:04;;;;;;;;;5.25;3.75;;;;;13.00;92.95;100664.47;4871517;29;45415;-90
2023/01/01 03:55:35;;;;;;;;;8.00;7.00;;;;;12.27;90.72;100557.75;4867775;29;48329;-91
2023/01/01 03:58:08;;;;;;;;;4.00;4.00;;;;;11.63;90.42;100467.63;4868997;29;45431;-90
2023/01/01 04:00:41;;;;;;;;;4.75;4.75;;;;;12.95;89.85;100687.59;4876893;29;45298;-91
2023/01/01 04:03:22;;;;;;;;;9.00;5.50;;;;;12.05;86.94;100530.09;4886396;29;45267;-90
2023/01/01 04:05:47;;;;;;;;;9.25;7.50;;;;;12.36;91.56;100593.75;4903571;29;47693;-91
2023/01/01 04:08:14;;;;;;;;;7.75;6.50;;;;;11.79;92.89;100502.50;4901512;29;45441;-90
2023/01/01 04:10:48;;;;;;;;;5.75;4.75;;;;;12.89;92.02;100699.25;4904246;29;45211;-90
2023/01/01 04:13:14;;;;;;;;;6.25;4.75;;;;;12.69;89.82;100661.78;4906383;29;45442;-90
2023/01/01 04:15:39;;;;;;;;;7.00;5.75;;;;;11.26;92.23;100420.06;4903748;29;46431;-90
2023/01/01 04:18:05;;;;;;;;;4.00;3.25;;;;;11.20;93.75;100415.78;4923802;28;45527;-90
2023/01/01 04:20:31;;;;;;;;;3.25;3.25;;;;;11.81;92.70;100510.41;4907731;29;45499;-90
2023/01/01 04:22:58;;;;;;;;;6.50;6.50;;;;;12.90;95.10;100711.59;4927291;28;45430;-90
2023/01/01 04:25:23;;;;;;;;;7.50;7.50;;;;;12.64;93.61;100680.47;4913956;28;47569;-90
2023/01/01 04:27:49;;;;;;;;;5.25;5.25;;;;;12.44;94.14;100634.16;4920000;28;45420;-90
2023/01/01 04:30:15;;;;;;;;;4.75;4.25;;;;;11.73;94.04;100524.69;4917616;28;45336;-89
2023/01/01 04:32:41;;;;;;;;;5.25;4.75;;;;;11.15;93.96;100430.91;4912307;29;44761;-90
2023/01/01 04:35:10;;;;;;;;;6.00;5.00;;;;;12.40;92.00;100634.28;4908069;28;47127;-90
2023/01/01 04:37:36;;;;;;;;;10.00;8.25;;;;;12.42;92.78;100667.81;4905658;29;44870;-88
2023/01/01 04:40:02;;;;;;;;;9.50;8.00;;;;;12.20;94.80;100609.16;4902313;29;45396;-90
2023/01/01 04:42:28;;;;;;;;;5.00;4.75;;;;;12.84;92.39;100711.75;4891653;29;45577;-90
2023/01/01 04:44:53;;;;;;;;;9.25;8.75;;;;;12.17;89.63;100609.25;4894266;29;46870;-90
2023/01/01 04:47:18;;;;;;;;;6.75;4.00;;;;;12.81;93.83;100709.19;4888060;29;45355;-91
2023/01/01 04:49:44;;;;;;;;;3.50;3.50;;;;;12.49;92.73;100673.78;4919140;28;45378;-91
2023/01/01 04:52:09;;;;;;;;;6.25;6.25;;;;;11.84;94.61;100561.53;4925614;28;45207;-90
2023/01/01 04:54:35;;;;;;;;;5.25;5.00;;;;;12.79;93.64;100718.97;4920345;28;46516;-90
2023/01/01 04:57:00;;;;;;;;;8.00;5.00;;;;;11.48;93.04;100518.31;4907934;29;45298;-90
2023/01/01 04:59:27;;;;;;;;;5.75;4.75;;;;;11.60;94.60;100533.00;4922047;28;45298;-91
2023/01/01 05:01:53;;;;;;;;;5.50;5.00;;;;;12.38;95.52;100641.41;4925613;28;45300;-91
2023/01/01 05:04:18;;;;;;;;;5.00;5.00;;;;;12.44;95.68;100670.41;4909878;29;46437;-90
2023/01/01 05:06:43;;;;;;;;;5.00;3.75;;;;;12.06;94.83;100600.72;4914922;28;45362;-90
2023/01/01 05:09:10;;;;;;;;;7.50;6.00;;;;;12.18;91.43;100621.59;4902031;28;45296;-90
2023/01/01 05:11:35;;;;;;;;;5.75;3.75;;;;;11.60;95.13;100538.28;4911866;28;45685;-91
2023/01/01 05:14:01;;;;;;;;;10.00;9.25;;;;;12.74;95.63;100731.50;4914876;28;46745;-91
2023/01/01 05:16:29;;;;;;;;;8.00;6.25;;;;;11.51;95.64;100532.31;4910766;28;45779;-90
2023/01/01 05:18:55;;;;;;;;;5.00;4.50;;;;;11.82;94.55;100603.03;4896187;28;45539;-90
2023/01/01 05:21:23;;;;;;;;;4.75;4.00;;;;;12.55;97.24;100718.69;4884623;29;45340;-90
2023/01/01 05:23:53;;;;;;;;;5.75;4.00;;;;;12.15;95.19;100661.44;4895156;29;47141;-91
2023/01/01 05:26:22;;;;;;;;;8.25;8.25;;;;;11.34;94.61;100519.50;4894952;29;45248;-90
2023/01/01 05:28:48;;;;;;;;;6.00;5.50;;;;;11.85;94.22;100618.84;4894613;29;45543;-90
2023/01/01 05:31:17;;;;;;;;;2.25;2.25;;;;;12.70;95.52;100772.25;4915512;28;45343;-89
2023/01/01 05:33:43;;;;;;;;;6.00;5.50;;;;;12.04;96.73;100682.00;4885281;29;47021;-91
2023/01/01 05:36:14;;;;;;;;;5.50;3.25;;;;;11.70;93.47;100604.19;4885085;29;45384;-90
2023/01/01 05:38:40;;;;;;;;;6.00;6.00;;;;;11.67;93.94;100595.47;4886275;29;45453;-91
2023/01/01 05:41:07;;;;;;;;;5.00;5.00;;;;;11.96;95.55;100649.53;4884944;29;45555;-90
2023/01/01 05:43:32;;;;;;;;;4.75;3.75;;;;;11.26;97.57;100544.41;4894269;29;48197;-90
2023/01/01 05:46:00;;;;;;;;;5.50;5.50;;;;;12.26;95.60;100704.41;4884685;29;45399;-90
2023/01/01 05:48:25;;;;;;;;;5.50;4.25;;;;;11.83;95.68;100641.00;4877760;29;45425;-90
2023/01/01 05:50:59;;;;;;;;;7.75;6.00;;;;;12.70;96.57;100788.19;4888285;29;45320;-90
2023/01/01 05:53:25;;;;;;;;;2.50;1.50;;;;;11.55;96.88;100596.63;4889626;29;45661;-91
2023/01/01 05:55:53;;;;;;;;;4.50;2.75;;;;;12.27;96.00;100714.09;4888108;29;45474;-91
2023/01/01 05:58:19;;;;;;;;;6.25;4.50;;;;;11.77;96.82;100639.38;4898767;29;45584;-90
2023/01/01 06:00:44;;;;;;;;;6.00;5.00;;;;;11.66;92.00;100606.97;4903672;29;45373;-88
2023/01/01 06:03:09;;;;;;;;;7.00;6.00;;;;;12.07;95.94;100687.22;4892995;29;45469;-90
2023/01/01 06:05:35;;;;;;;;;6.75;5.75;;;;;11.64;95.03;100624.66;4901092;29;45382;-91
2023/01/01 06:08:00;;;;;;;;;5.50;5.50;;;;;11.21;95.04;100557.72;4901462;29;45753;-90
2023/01/01 06:10:25;;;;;;;;;7.00;6.25;;;;;11.97;93.21;100665.41;4895907;29;45282;-91
2023/01/01 06:12:52;;;;;;;;;6.50;6.00;;;;;11.58;94.98;100603.63;4886466;28;46359;-90
2023/01/01 06:15:18;;;;;;;;;6.75;6.75;;;;;12.48;95.82;100751.59;4891797;29;45251;-88
2023/01/01 06:17:43;;;;;;;;;11.25;6.00;;;;;11.10;96.03;100501.53;4905243;29;45455;-89
2023/01/01 06:20:09;;;;;;;;;6.50;6.00;;;;;12.30;97.02;100714.94;4925175;28;45289;-91
2023/01/01 06:22:36;;;;;;;;;6.75;4.00;;;;;11.46;97.17;100589.78;4902667;29;47556;-90
2023/01/01 06:25:02;;;;;;;;;7.00;5.00;;;;;12.39;96.59;100714.69;4905283;29;45380;-88
2023/01/01 06:27:27;;;;;;;;;6.50;5.00;;;;;11.82;97.62;100663.94;4910612;29;45323;-90
2023/01/01 06:29:52;;;;;;;;;8.25;6.50;;;;;11.61;95.85;100603.56;4907875;29;45380;-91
2023/01/01 06:32:18;;;;;;;;;5.50;5.50;;;;;12.26;94.94;100704.41;4906555;29;45419;-90
2023/01/01 06:34:43;;;;;;;;;3.00;3.00;;;;;12.59;95.79;100757.50;4917125;28;45459;-91
2023/01/01 06:37:09;;;;;;;;;4.00;4.00;;;;;12.36;95.22;100709.47;4910084;28;45405;-90
2023/01/01 06:39:34;;;;;;;;;7.00;5.00;;;;;11.51;96.64;100585.25;4910151;29;45439;-90
2023/01/01 06:41:59;;;;;;;;;7.75;6.25;;;;;10.98;94.62;100513.31;4925613;28;46425;-89
2023/01/01 06:44:25;;;;;;;;;5.75;4.75;;;;;11.35;94.93;100583.88;4907515;29;44776;-89
2023/01/01 06:46:50;;;;;;;;;6.25;3.75;;;;;12.56;96.49;100792.03;4905762;29;45335;-90
2023/01/01 06:49:15;;;;;;;;;7.00;5.75;;;;;11.46;96.59;100618.88;4904515;29;45506;-91
2023/01/01 06:51:42;;;;;;;;;6.00;4.50;;;;;11.67;97.19;100656.38;4912395;28;48195;-90
2023/01/01 06:54:09;;;;;;;;;5.25;5.25;;;;;11.13;95.71;100557.03;4904905;29;45283;-91
2023/01/01 06:56:35;;;;;;;;;5.75;5.75;;;;;11.44;97.07;100623.34;4906196;29;45414;-91
2023/01/01 06:59:01;;;;;;;;;3.00;3.00;;;;;11.42;96.69;100603.09;4923528;28;45340;-90
2023/01/01 07:01:29;;;;;;;;;5.50;5.00;;;;;11.04;95.63;100566.06;4891097;29;47475;-90
2023/01/01 07:04:00;;;;;;;;;5.25;4.25;;;;;12.00;97.17;100735.97;4906550;29;45370;-90
2023/01/01 07:06:28;;;;;;;;;2.00;2.00;;;;;12.44;97.82;100795.84;4904324;29;45467;-91
2023/01/01 07:08:54;;;;;;;;;4.00;4.00;;;;;12.56;97.41;100828.31;4910085;29;44892;-89
2023/01/01 07:11:20;;;;;;;;;5.00;4.00;;;;;11.51;98.32;100638.19;4914060;29;46374;-90
2023/01/01 07:13:46;;;;;;;;;4.00;4.00;;;;;11.73;97.84;100693.28;4898923;29;45381;-91
2023/01/01 07:16:11;;;;;;;;;6.50;4.75;;;;;11.34;97.75;100621.81;4890126;29;45392;-91
2023/01/01 07:18:37;;;;;;;;;4.00;4.00;;;;;12.11;98.63;100748.97;4903588;29;45235;-90
2023/01/01 07:21:04;;;;;;;;;4.50;3.75;;;;;12.04;99.05;100748.22;4903805;29;46093;-91
2023/01/01 07:23:33;;;;;;;;;6.25;3.50;;;;;11.87;98.32;100711.50;4889247;29;45635;-92
2023/01/01 07:26:00;;;;;;;;;4.50;4.50;;;;;12.16;97.84;100769.16;4894282;29;45334;-90
2023/01/01 07:28:26;;;;;;;;;5.75;4.00;;;;;12.22;98.20;100770.78;4894156;29;45556;-90
2023/01/01 07:30:53;;;;;;;;;3.50;3.00;;;;;11.77;99.07;100715.25;4911930;29;45702;-90
2023/01/01 07:33:22;;;;;;;;;4.75;4.50;;;;;12.64;99.84;100873.19;4909734;29;45437;-89
2023/01/01 07:35:47;;;;;;;;;6.50;5.25;;;;;11.98;98.72;100751.03;4887586;29;45455;-90
2023/01/01 07:38:14;;;;;;;;;4.25;4.00;;;;;11.41;93.75;100667.56;4888284;29;45529;-91
2023/01/01 07:40:40;;;;;;;;;4.00;4.00;;;;;11.59;97.55;100698.03;4899218;29;47241;-91
2023/01/01 07:43:06;;;;;;;;;4.00;4.00;;;;;12.17;99.27;100791.22;4908513;29;45268;-88
2023/01/01 07:45:33;;;;;;;;;4.25;3.50;;;;;12.20;99.36;100828.25;4895718;29;45374;-91
2023/01/01 07:47:59;;;;;;;;;4.25;3.25;;;;;12.03;99.04;100775.66;4886775;29;45307;-92
2023/01/01 07:50:30;;;;;;;;;4.00;3.50;;;;;11.14;99.62;100633.69;4889094;28;47153;-91
2023/01/01 07:52:56;;;;;;;;;5.25;5.00;;;;;10.73;99.41;100548.19;4916245;28;45335;-90
2023/01/01 07:55:21;;;;;;;;;4.00;4.00;;;;;12.58;98.94;100871.53;4941949;28;45388;-91
2023/01/01 07:57:47;;;;;;;;;5.00;5.00;;;;;10.97;98.75;100641.13;4901601;28;45669;-91
2023/01/01 08:00:16;;;;;;;;;2.25;2.25;;;;;12.12;99.33;100820.47;4916473;28;46255;-91
2023/01/01 08:02:42;;;;;;;;;5.75;4.00;;;;;10.95;98.13;100657.03;4908083;28;45349;-91
2023/01/01 08:05:08;;;;;;;;;5.00;4.25;;;;;11.79;99.89;100769.94;4906567;28;45474;-91
2023/01/01 08:07:33;;;;;;;;;4.00;4.00;;;;;11.73;98.39;100775.38;4906937;28;45339;-91
2023/01/01 08:09:59;;;;;;;;;6.25;5.25;;;;;12.17;99.96;100847.72;4910168;28;47045;-92
2023/01/01 08:12:25;;;;;;;;;5.00;5.00;;;;;12.60;100.00;100909.50;4913076;28;45632;-90
2023/01/01 08:14:50;;;;;;;;;4.75;4.75;;;;;11.85;99.39;100791.00;4908572;28;45433;-90
2023/01/01 08:17:16;;;;;;;;;5.00;4.00;;;;;11.83;99.98;100800.75;4905018;28;45296;-91
2023/01/01 08:19:41;;;;;;;;;3.50;3.25;;;;;11.33;100.00;100720.66;4925526;28;45784;-90
2023/01/01 08:22:07;;;;;;;;;4.25;3.25;;;;;11.37;100.00;100728.50;4906933;29;45405;-90
2023/01/01 08:24:32;;;;;;;;;3.25;3.25;;;;;12.21;100.00;100870.59;4890635;29;45263;-92
2023/01/01 08:26:58;;;;;;;;;7.25;7.25;;;;;12.59;100.00;100959.00;4905656;29;45516;-90
2023/01/01 08:29:23;;;;;;;;;5.00;5.00;;;;;11.43;100.00;100740.69;4904652;29;48065;-91
2023/01/01 08:31:49;;;;;;;;;5.00;5.00;;;;;12.15;100.00;100869.88;4889737;29;46180;-91
2023/01/01 08:34:14;;;;;;;;;5.00;4.25;;;;;10.93;100.00;100655.31;4901912;29;45328;-89
2023/01/01 08:36:40;;;;;;;;;2.00;2.00;;;;;11.02;100.00;100663.06;4905326;29;45372;-89
2023/01/01 08:39:08;;;;;;;;;7.50;6.00;;;;;12.08;100.00;100858.53;4908225;29;46084;-90
2023/01/01 08:41:34;;;;;;;;;4.00;4.00;;;;;11.85;100.00;100825.44;4910112;29;45650;-91
2023/01/01 08:43:59;;;;;;;;;5.25;4.75;;;;;11.52;100.00;100758.16;4909953;29;45422;-90
2023/01/01 08:46:27;;;;;;;;;5.00;5.00;;;;;11.67;100.00;100778.16;4910529;28;45337;-92
2023/01/01 08:48:53;;;;;;;;;2.50;1.25;;;;;10.91;99.83;100662.41;4886834;29;46220;-90
2023/01/01 08:51:18;;;;;;;;;5.50;5.50;;;;;12.55;99.80;100936.13;4913456;28;45340;-90
2023/01/01 08:53:44;;;;;;;;;4.75;3.25;;;;;11.77;99.22;100816.78;4910548;28;45810;-90
2023/01/01 08:56:15;;;;;;;;;2.25;2.25;;;;;11.78;100.00;100813.25;4914746;28;44901;-93
2023/01/01 08:58:42;;;;;;;;;3.75;3.75;;;;;11.43;100.00;100748.63;4906916;28;46837;-91
2023/01/01 09:01:09;;;;;;;;;4.75;4.75;;;;;11.33;100.00;100733.88;4888169;29;45267;-90
2023/01/01 09:03:34;;;;;;;;;6.00;3.50;;;;;11.47;100.00;100770.63;4901441;28;45421;-89
2023/01/01 09:06:00;;;;;;;;;6.00;6.00;;;;;12.57;98.97;100931.66;4897387;28;45254;-90
2023/01/01 09:08:25;;;;;;;;;4.75;4.75;;;;;11.53;100.00;100744.03;4913235;28;46674;-91
2023/01/01 09:14:13;;;;;;;;;7.00;5.25;;;;;12.15;99.35;100854.00;4904430;29;45246;-91
2023/01/01 09:16:38;;;;;;;;;4.75;4.50;;;;;12.16;99.93;100843.34;4908599;28;45535;-92
2023/01/01 09:19:04;;;;;;;;;5.25;5.25;;;;;11.30;98.97;100692.47;4922268;28;46675;-90
2023/01/01 09:21:30;;;;;;;;;4.00;2.75;;;;;10.42;99.15;100546.19;4889700;29;45891;-91
2023/01/01 09:23:55;;;;;;;;;6.25;4.75;;;;;12.59;97.13;100919.25;4893132;29;45529;-92
2023/01/01 09:26:21;;;;;;;;;4.75;3.75;;;;;11.67;96.61;100756.97;4904473;29;45368;-91
2023/01/01 09:28:46;;;;;;;;;5.50;4.50;;;;;11.84;98.86;100781.31;4924746;28;46227;-91
2023/01/01 09:31:12;;;;;;;;;5.25;3.75;;;;;11.70;99.25;100767.50;4922206;28;45409;-90
2023/01/01 09:33:38;;;;;;;;;2.75;2.75;;;;;12.65;99.86;100917.34;4922976;28;45332;-92
2023/01/01 09:36:30;;;;;;;;;6.50;3.00;;;;;10.74;97.91;100594.88;4921300;28;45389;-91
2023/01/01 09:38:57;;;;;;;;;4.00;4.00;;;;;12.25;98.80;100851.09;4891437;29;47078;-92
2023/01/01 09:45:14;;;;;;;;;10.50;5.75;;;;;12.69;97.91;100914.56;4907607;29;44689;-91
2023/01/01 09:48:31;;;;;;;;;5.25;3.00;;;;;12.72;98.64;100903.03;4908147;29;45258;-91
2023/01/01 09:51:00;;;;;;;;;6.25;4.75;;;;;12.72;99.39;100925.16;4924506;28;46807;-91
2023/01/01 09:53:33;;;;;;;;;3.50;2.00;;;;;12.39;97.38;100863.13;4905704;29;45427;-93
2023/01/01 09:56:01;;;;;;;;;5.00;4.00;;;;;12.48;99.09;100894.75;4902350;28;45509;-91
2023/01/01 09:58:37;;;;;;;;;7.75;4.75;;;;;12.15;95.26;100849.56;4895385;29;45254;-90
2023/01/01 10:01:16;;;;;;;;;2.75;2.75;;;;;11.07;99.02;100677.06;4893843;29;47017;-90
2023/01/01 10:03:59;;;;;;;;;5.00;5.00;;;;;12.76;96.16;100936.53;4918187;28;45415;-90
2023/01/01 10:06:29;;;;;;;;;4.25;4.00;;;;;11.74;98.52;100771.84;4921894;28;45305;-92
2023/01/01 10:09:24;;;;;;;;;5.50;5.50;;;;;12.78;98.53;100945.31;4896332;29;45370;-93
2023/01/01 10:11:59;;;;;;;;;6.00;5.00;;;;;11.58;99.29;100752.75;4892472;29;48705;-93
2023/01/01 10:14:48;;;;;;;;;5.00;5.00;;;;;12.00;95.99;100823.41;4904619;28;45873;-91
2023/01/01 10:17:33;;;;;;;;;8.00;5.50;;;;;12.46;97.64;100904.50;4901064;29;44615;-92
2023/01/01 10:23:45;;;;;;;;;4.00;4.00;;;;;12.11;99.19;100829.31;4936600;28;45631;-92
2023/01/01 10:26:16;;;;;;;;;5.00;4.00;;;;;12.10;99.69;100819.66;4866438;29;45591;-92
2023/01/01 10:28:50;;;;;;;;;8.25;5.25;;;;;12.82;99.91;100941.69;4874257;29;45360;-92
2023/01/01 10:31:29;;;;;;;;;5.00;4.00;;;;;11.65;99.96;100738.47;4871524;29;45491;-92
2023/01/01 10:33:56;;;;;;;;;6.25;3.75;;;;;10.96;100.00;100623.50;4871141;29;47201;-92
2023/01/01 10:36:22;;;;;;;;;6.00;6.00;;;;;11.67;99.77;100735.78;4871815;29;45433;-91
2023/01/01 10:38:49;;;;;;;;;4.25;4.25;;;;;12.00;98.48;100797.78;4876438;29;45310;-92
2023/01/01 10:41:16;;;;;;;;;3.50;3.50;;;;;12.37;98.79;100880.88;4862974;29;45331;-91
2023/01/01 10:43:43;;;;;;;;;3.50;3.50;;;;;11.54;99.19;100709.59;4875466;29;47197;-92
2023/01/01 10:46:17;;;;;;;;;5.00;5.00;;;;;12.14;99.46;100816.00;4891935;29;45272;-90
2023/01/01 10:49:12;;;;;;;;;3.50;3.50;;;;;12.79;99.59;100942.63;4880095;29;45268;-90
2023/01/01 10:51:44;;;;;;;;;3.00;3.00;;;;;12.81;99.83;100918.72;4878256;29;45299;-90
2023/01/01 10:54:32;;;;;;;;;4.00;3.75;;;;;12.77;98.05;100901.16;4903769;29;46794;-91
2023/01/01 10:56:58;;;;;;;;;4.75;4.75;;;;;10.87;95.71;100584.03;4912087;29;45258;-90
2023/01/01 10:59:38;;;;;;;;;8.75;5.50;;;;;12.73;98.07;100899.50;4920390;29;45252;-92
2023/01/01 11:02:27;;;;;;;;;5.00;4.75;;;;;12.07;96.52;100790.53;4887600;28;45252;-91
2023/01/01 11:05:22;;;;;;;;;8.50;5.00;;;;;12.71;97.48;100874.78;4910426;28;46447;-92
2023/01/01 11:07:48;;;;;;;;;3.25;3.25;;;;;12.25;100.00;100803.41;4905124;28;45417;-91
2023/01/01 11:10:28;;;;;;;;;4.50;4.50;;;;;11.64;98.86;100707.59;4905576;28;45323;-92
2023/01/01 11:12:54;;;;;;;;;5.50;4.50;;;;;11.50;98.08;100670.00;4897011;29;45384;-93
2023/01/01 11:15:37;;;;;;;;;4.75;3.50;;;;;12.32;98.36;100827.97;4908021;28;47336;-92
2023/01/01 11:18:05;;;;;;;;;4.00;4.00;;;;;11.97;98.90;100754.59;4894851;29;45289;-92
2023/01/01 11:20:34;;;;;;;;;4.75;4.75;;;;;10.99;99.28;100589.97;4902921;29;45375;-92
2023/01/01 11:23:17;;;;;;;;;6.25;5.50;;;;;11.98;97.63;100751.03;4890863;29;45344;-93
2023/01/01 11:26:18;;;;;;;;;6.00;6.00;;;;;12.30;97.81;100799.75;4901088;28;48326;-91
2023/01/01 11:29:04;;;;;;;;;5.00;4.00;;;;;12.51;99.48;100823.09;4893519;28;45456;-92
2023/01/01 11:31:37;;;;;;;;;9.25;6.50;;;;;12.66;99.98;100847.50;4901565;29;45355;-94
2023/01/01 11:34:23;;;;;;;;;7.00;4.50;;;;;11.91;99.09;100729.94;4898588;29;45353;-92
2023/01/01 11:36:49;;;;;;;;;3.25;3.25;;;;;11.02;100.00;100573.13;4908617;28;47320;-92
2023/01/01 11:39:25;;;;;;;;;8.00;6.25;;;;;12.64;100.00;100825.47;4912130;28;45813;-90
2023/01/01 11:41:53;;;;;;;;;9.50;7.75;;;;;11.01;100.00;100568.78;4911524;28;45647;-90
2023/01/01 11:44:32;;;;;;;;;8.25;5.75;;;;;12.18;99.97;100742.63;4895450;28;45550;-92
2023/01/01 11:46:58;;;;;;;;;7.50;5.75;;;;;11.80;100.00;100672.84;4890291;29;47110;-90
2023/01/01 11:49:27;;;;;;;;;5.25;5.25;;;;;11.30;100.00;100588.41;4891384;29;44969;-89
2023/01/01 11:51:54;;;;;;;;;9.75;8.00;;;;;11.75;100.00;100665.00;4897654;28;45467;-92